createdAt,value
2022-11-10T00:00:09.099Z,270
2022-11-10T00:00:29.156Z,270
2022-11-10T00:00:49.216Z,135
2022-11-10T00:01:09.275Z,67.5
2022-11-10T00:01:29.327Z,45
2022-11-10T00:01:49.375Z,67.5
2022-11-10T00:02:09.438Z,90
2022-11-10T00:02:29.491Z,67.5
2022-11-10T00:02:49.549Z,112.5
2022-11-10T00:03:09.694Z,112.5
2022-11-10T00:03:29.660Z,225
2022-11-10T00:03:49.801Z,270
2022-11-10T00:04:09.836Z,135
2022-11-10T00:04:29.960Z,90
2022-11-10T00:04:49.889Z,135
2022-11-10T00:05:09.951Z,135
2022-11-10T00:05:30.010Z,135
2022-11-10T00:05:50.045Z,135
2022-11-10T00:06:10.118Z,112.5
2022-11-10T00:06:30.246Z,45
2022-11-10T00:06:50.310Z,45
2022-11-10T00:07:10.366Z,45
2022-11-10T00:07:30.356Z,135
2022-11-10T00:07:50.400Z,247.5
2022-11-10T00:08:10.556Z,270
2022-11-10T00:08:30.520Z,292.5
2022-11-10T00:08:50.574Z,315
2022-11-10T00:09:10.637Z,180
2022-11-10T00:09:30.684Z,112.5
2022-11-10T00:09:50.744Z,225
2022-11-10T00:10:10.771Z,247.5
2022-11-10T00:10:30.852Z,135
2022-11-10T00:10:50.926Z,135
2022-11-10T00:11:10.980Z,67.5
2022-11-10T00:11:31.032Z,45
2022-11-10T00:11:51.081Z,180
2022-11-10T00:12:11.150Z,292.5
2022-11-10T00:12:31.210Z,225
2022-11-10T00:12:51.254Z,90
2022-11-10T00:13:11.521Z,90
2022-11-10T00:13:31.375Z,67.5
2022-11-10T00:13:51.421Z,90
2022-11-10T00:14:11.480Z,225
2022-11-10T00:14:31.547Z,315
2022-11-10T00:14:51.596Z,292.5
2022-11-10T00:15:11.652Z,247.5
2022-11-10T00:15:31.698Z,225
2022-11-10T00:15:51.764Z,202.5
2022-11-10T00:16:11.821Z,112.5
2022-11-10T00:16:31.930Z,90
2022-11-10T00:16:51.934Z,180
2022-11-10T00:17:11.994Z,202.5
2022-11-10T00:17:32.043Z,202.5
2022-11-10T00:17:52.094Z,135
2022-11-10T00:18:12.349Z,90
2022-11-10T00:18:32.214Z,90
2022-11-10T00:18:52.271Z,225
2022-11-10T00:19:12.331Z,270
2022-11-10T00:19:32.379Z,135
2022-11-10T00:19:52.428Z,45
2022-11-10T00:20:12.501Z,67.5
2022-11-10T00:20:32.563Z,135
2022-11-10T00:20:52.611Z,180
2022-11-10T00:21:12.669Z,180
2022-11-10T00:21:32.727Z,180
2022-11-10T00:21:52.789Z,180
2022-11-10T00:22:12.836Z,180
2022-11-10T00:22:32.881Z,135
2022-11-10T00:22:52.943Z,157.5
2022-11-10T00:23:13.100Z,247.5
2022-11-10T00:23:33.064Z,315
2022-11-10T00:23:53.124Z,180
2022-11-10T00:24:13.196Z,90
2022-11-10T00:24:33.247Z,67.5
2022-11-10T00:24:53.297Z,202.5
2022-11-10T00:25:13.348Z,270
2022-11-10T00:25:33.401Z,247.5
2022-11-10T00:25:53.461Z,225
2022-11-10T00:26:13.511Z,180
2022-11-10T00:26:33.556Z,247.5
2022-11-10T00:26:53.609Z,292.5
2022-11-10T00:27:13.656Z,292.5
2022-11-10T00:27:33.716Z,247.5
2022-11-10T00:27:53.776Z,202.5
2022-11-10T00:28:14.005Z,202.5
2022-11-10T00:28:33.893Z,292.5
2022-11-10T00:28:53.929Z,225
2022-11-10T00:29:13.983Z,90
2022-11-10T00:29:34.046Z,45
2022-11-10T00:29:54.108Z,67.5
2022-11-10T00:30:14.148Z,112.5
2022-11-10T00:30:34.170Z,90
2022-11-10T00:30:54.257Z,135
2022-11-10T00:31:14.307Z,202.5
2022-11-10T00:31:34.361Z,202.5
2022-11-10T00:31:54.428Z,202.5
2022-11-10T00:32:14.483Z,202.5
2022-11-10T00:32:34.535Z,180
2022-11-10T00:32:54.560Z,112.5
2022-11-10T00:33:14.847Z,67.5
2022-11-10T00:33:34.715Z,45
2022-11-10T00:33:54.768Z,45
2022-11-10T00:34:14.821Z,112.5
2022-11-10T00:34:34.873Z,157.5
2022-11-10T00:34:54.928Z,180
2022-11-10T00:35:14.985Z,247.5
2022-11-10T00:35:35.036Z,270
2022-11-10T00:35:55.086Z,270
2022-11-10T00:36:15.143Z,270
2022-11-10T00:36:35.203Z,247.5
2022-11-10T00:36:55.274Z,270
2022-11-10T00:37:15.325Z,315
2022-11-10T00:37:35.387Z,202.5
2022-11-10T00:37:55.435Z,90
2022-11-10T00:38:15.562Z,45
2022-11-10T00:38:35.537Z,22.5
2022-11-10T00:38:55.590Z,22.5
2022-11-10T00:39:15.649Z,22.5
2022-11-10T00:39:35.693Z,22.5
2022-11-10T00:39:55.760Z,22.5
2022-11-10T00:40:15.809Z,45
2022-11-10T00:40:35.876Z,22.5
2022-11-10T00:40:55.934Z,22.5
2022-11-10T00:41:16.001Z,45
2022-11-10T00:41:36.064Z,45
2022-11-10T00:41:56.108Z,22.5
2022-11-10T00:42:16.166Z,22.5
2022-11-10T00:42:36.218Z,45
2022-11-10T00:42:56.271Z,67.5
2022-11-10T00:43:16.516Z,112.5
2022-11-10T00:43:36.419Z,225
2022-11-10T00:43:56.439Z,315
2022-11-10T00:44:16.496Z,225
2022-11-10T00:44:36.548Z,112.5
2022-11-10T00:44:56.607Z,67.5
2022-11-10T00:45:16.664Z,67.5
2022-11-10T00:45:36.719Z,67.5
2022-11-10T00:45:56.772Z,67.5
2022-11-10T00:46:16.824Z,67.5
2022-11-10T00:46:36.883Z,67.5
2022-11-10T00:46:56.935Z,67.5
2022-11-10T00:47:16.986Z,67.5
2022-11-10T00:47:37.043Z,67.5
2022-11-10T00:47:57.095Z,67.5
2022-11-10T00:48:17.332Z,67.5
2022-11-10T00:48:37.205Z,67.5
2022-11-10T00:48:57.261Z,90
2022-11-10T00:49:17.312Z,135
2022-11-10T00:49:37.363Z,157.5
2022-11-10T00:49:57.421Z,157.5
2022-11-10T00:50:17.472Z,157.5
2022-11-10T00:50:37.534Z,157.5
2022-11-10T00:50:57.594Z,135
2022-11-10T00:51:17.636Z,135
2022-11-10T00:51:37.705Z,112.5
2022-11-10T00:51:57.765Z,112.5
2022-11-10T00:52:17.810Z,112.5
2022-11-10T00:52:37.871Z,112.5
2022-11-10T00:52:57.924Z,112.5
2022-11-10T00:53:18.298Z,112.5
2022-11-10T00:53:38.043Z,112.5
2022-11-10T00:53:58.100Z,112.5
2022-11-10T00:54:18.159Z,112.5
2022-11-10T00:54:38.217Z,112.5
2022-11-10T00:54:58.279Z,90
2022-11-10T00:55:18.329Z,112.5
2022-11-10T00:55:38.385Z,112.5
2022-11-10T00:55:58.445Z,112.5
2022-11-10T00:56:18.499Z,112.5
2022-11-10T00:56:38.557Z,112.5
2022-11-10T00:56:58.615Z,112.5
2022-11-10T00:57:18.664Z,112.5
2022-11-10T00:57:38.781Z,112.5
2022-11-10T00:57:58.775Z,112.5
2022-11-10T00:58:18.930Z,67.5
2022-11-10T00:58:38.878Z,22.5
2022-11-10T00:58:58.939Z,22.5
2022-11-10T00:59:18.992Z,22.5
2022-11-10T00:59:39.035Z,45
2022-11-10T00:59:59.105Z,67.5
2022-11-10T01:00:19.157Z,112.5
2022-11-10T01:00:39.207Z,202.5
2022-11-10T01:00:59.317Z,202.5
2022-11-10T01:01:19.395Z,225
2022-11-10T01:01:39.484Z,225
2022-11-10T01:01:59.446Z,225
2022-11-10T01:02:19.484Z,225
2022-11-10T01:02:39.556Z,225
2022-11-10T01:02:59.607Z,202.5
2022-11-10T01:03:20.186Z,90
2022-11-10T01:03:39.724Z,45
2022-11-10T01:03:59.805Z,22.5
2022-11-10T01:04:19.859Z,22.5
2022-11-10T01:04:39.913Z,45
2022-11-10T01:05:00.001Z,22.5
2022-11-10T01:05:20.089Z,22.5
2022-11-10T01:05:40.156Z,22.5
2022-11-10T01:06:00.236Z,22.5
2022-11-10T01:06:20.293Z,22.5
2022-11-10T01:06:40.413Z,22.5
2022-11-10T01:07:00.519Z,22.5
2022-11-10T01:07:20.506Z,22.5
2022-11-10T01:07:40.565Z,90
2022-11-10T01:08:00.645Z,247.5
2022-11-10T01:08:20.867Z,315
2022-11-10T01:08:40.809Z,292.5
2022-11-10T01:09:00.942Z,135
2022-11-10T01:09:20.948Z,45
2022-11-10T01:09:41.020Z,67.5
2022-11-10T01:10:01.090Z,225
2022-11-10T01:10:21.143Z,292.5
2022-11-10T01:10:41.238Z,270
2022-11-10T01:11:01.307Z,202.5
2022-11-10T01:11:21.389Z,135
2022-11-10T01:11:41.458Z,202.5
2022-11-10T01:12:01.532Z,225
2022-11-10T01:12:21.609Z,202.5
2022-11-10T01:12:41.662Z,225
2022-11-10T01:13:01.725Z,202.5
2022-11-10T01:13:22.235Z,180
2022-11-10T01:13:41.849Z,180
2022-11-10T01:14:01.934Z,157.5
2022-11-10T01:14:22.013Z,135
2022-11-10T01:14:42.097Z,135
2022-11-10T01:15:02.173Z,112.5
2022-11-10T01:15:27.264Z,112.5
2022-11-10T01:15:42.370Z,157.5
2022-11-10T01:16:02.463Z,135
2022-11-10T01:16:22.541Z,225
2022-11-10T01:16:42.606Z,292.5
2022-11-10T01:17:02.681Z,337.5
2022-11-10T01:17:22.747Z,337.5
2022-11-10T01:17:42.811Z,225
2022-11-10T01:18:02.869Z,112.5
2022-11-10T01:18:23.134Z,90
2022-11-10T01:18:42.986Z,90
2022-11-10T01:19:03.469Z,135
2022-11-10T01:19:23.182Z,247.5
2022-11-10T01:19:43.185Z,292.5
2022-11-10T01:20:03.269Z,157.5
2022-11-10T01:20:23.365Z,67.5
2022-11-10T01:20:43.440Z,45
2022-11-10T01:21:03.531Z,45
2022-11-10T01:21:23.606Z,90
2022-11-10T01:21:43.649Z,112.5
2022-11-10T01:22:03.739Z,112.5
2022-11-10T01:22:23.824Z,112.5
2022-11-10T01:22:43.881Z,112.5
2022-11-10T01:23:03.959Z,90
2022-11-10T01:23:24.620Z,112.5
2022-11-10T01:23:44.115Z,112.5
2022-11-10T01:24:04.193Z,112.5
2022-11-10T01:24:24.263Z,112.5
2022-11-10T01:24:44.342Z,112.5
2022-11-10T01:25:04.449Z,112.5
2022-11-10T01:25:24.501Z,112.5
2022-11-10T01:25:44.592Z,112.5
2022-11-10T01:26:04.643Z,135
2022-11-10T01:26:24.730Z,135
2022-11-10T01:26:44.835Z,135
2022-11-10T01:27:04.893Z,202.5
2022-11-10T01:27:24.937Z,247.5
2022-11-10T01:27:45.002Z,247.5
2022-11-10T01:28:05.067Z,112.5
2022-11-10T01:28:25.310Z,67.5
2022-11-10T01:28:45.224Z,45
2022-11-10T01:29:05.283Z,67.5
2022-11-10T01:29:25.353Z,90
2022-11-10T01:29:45.416Z,90
2022-11-10T01:30:05.514Z,90
2022-11-10T01:30:25.579Z,202.5
2022-11-10T01:30:45.670Z,247.5
2022-11-10T01:31:05.739Z,135
2022-11-10T01:31:25.805Z,67.5
2022-11-10T01:31:45.872Z,67.5
2022-11-10T01:32:05.918Z,67.5
2022-11-10T01:32:26.012Z,67.5
2022-11-10T01:32:46.073Z,180
2022-11-10T01:33:06.134Z,292.5
2022-11-10T01:33:26.403Z,315
2022-11-10T01:33:46.268Z,337.5
2022-11-10T01:34:06.336Z,337.5
2022-11-10T01:34:26.392Z,270
2022-11-10T01:34:46.478Z,135
2022-11-10T01:35:06.553Z,45
2022-11-10T01:35:26.621Z,22.5
2022-11-10T01:35:46.706Z,22.5
2022-11-10T01:36:06.793Z,22.5
2022-11-10T01:36:26.861Z,45
2022-11-10T01:36:46.949Z,45
2022-11-10T01:37:07.013Z,67.5
2022-11-10T01:37:27.075Z,67.5
2022-11-10T01:37:47.148Z,90
2022-11-10T01:38:07.247Z,90
2022-11-10T01:38:27.417Z,90
2022-11-10T01:38:47.410Z,90
2022-11-10T01:39:07.480Z,90
2022-11-10T01:39:27.555Z,90
2022-11-10T01:39:47.651Z,90
2022-11-10T01:40:07.789Z,180
2022-11-10T01:40:27.883Z,292.5
2022-11-10T01:40:47.890Z,337.5
2022-11-10T01:41:07.942Z,337.5
2022-11-10T01:41:27.996Z,315
2022-11-10T01:41:48.069Z,157.5
2022-11-10T01:42:08.115Z,67.5
2022-11-10T01:42:28.182Z,22.5
2022-11-10T01:42:48.229Z,22.5
2022-11-10T01:43:08.284Z,22.5
2022-11-10T01:43:28.514Z,22.5
2022-11-10T01:43:48.395Z,22.5
2022-11-10T01:44:08.475Z,67.5
2022-11-10T01:44:28.508Z,67.5
2022-11-10T01:44:48.573Z,45
2022-11-10T01:45:08.625Z,157.5
2022-11-10T01:45:28.679Z,135
2022-11-10T01:45:48.737Z,67.5
2022-11-10T01:46:08.794Z,45
2022-11-10T01:46:28.851Z,22.5
2022-11-10T01:46:48.903Z,157.5
2022-11-10T01:47:08.974Z,247.5
2022-11-10T01:47:29.010Z,270
2022-11-10T01:47:49.067Z,135
2022-11-10T01:48:09.121Z,90
2022-11-10T01:48:29.267Z,45
2022-11-10T01:48:49.235Z,67.5
2022-11-10T01:49:09.300Z,112.5
2022-11-10T01:49:29.350Z,112.5
2022-11-10T01:49:49.399Z,67.5
2022-11-10T01:50:09.458Z,67.5
2022-11-10T01:50:29.512Z,90
2022-11-10T01:50:49.577Z,90
2022-11-10T01:51:09.624Z,90
2022-11-10T01:51:29.672Z,67.5
2022-11-10T01:51:49.743Z,67.5
2022-11-10T01:52:09.801Z,90
2022-11-10T01:52:29.926Z,112.5
2022-11-10T01:52:49.911Z,157.5
2022-11-10T01:53:09.981Z,180
2022-11-10T01:53:30.118Z,180
2022-11-10T01:53:50.077Z,157.5
2022-11-10T01:54:10.148Z,135
2022-11-10T01:54:30.201Z,112.5
2022-11-10T01:54:50.260Z,112.5
2022-11-10T01:55:10.393Z,112.5
2022-11-10T01:55:30.359Z,112.5
2022-11-10T01:55:50.431Z,225
2022-11-10T01:56:10.500Z,225
2022-11-10T01:56:30.575Z,112.5
2022-11-10T01:56:50.600Z,67.5
2022-11-10T01:57:10.654Z,45
2022-11-10T01:57:30.716Z,22.5
2022-11-10T01:57:50.765Z,22.5
2022-11-10T01:58:10.813Z,22.5
2022-11-10T01:58:31.037Z,22.5
2022-11-10T01:58:50.929Z,22.5
2022-11-10T01:59:10.983Z,22.5
2022-11-10T01:59:31.041Z,22.5
2022-11-10T01:59:51.094Z,22.5
2022-11-10T02:00:11.153Z,45
2022-11-10T02:00:31.296Z,112.5
2022-11-10T02:00:51.321Z,135
2022-11-10T02:01:11.356Z,135
2022-11-10T02:01:31.365Z,112.5
2022-11-10T02:01:51.421Z,112.5
2022-11-10T02:02:11.474Z,135
2022-11-10T02:02:31.536Z,157.5
2022-11-10T02:02:51.583Z,157.5
2022-11-10T02:03:11.638Z,135
2022-11-10T02:03:31.797Z,135
2022-11-10T02:03:51.739Z,135
2022-11-10T02:04:11.775Z,135
2022-11-10T02:04:31.857Z,202.5
2022-11-10T02:04:51.915Z,292.5
2022-11-10T02:05:11.963Z,315
2022-11-10T02:05:32.040Z,270
2022-11-10T02:05:52.069Z,225
2022-11-10T02:06:12.130Z,180
2022-11-10T02:06:32.248Z,135
2022-11-10T02:06:52.280Z,112.5
2022-11-10T02:07:12.343Z,67.5
2022-11-10T02:07:32.346Z,45
2022-11-10T02:07:52.397Z,157.5
2022-11-10T02:08:12.458Z,225
2022-11-10T02:08:32.594Z,112.5
2022-11-10T02:08:52.558Z,67.5
2022-11-10T02:09:12.616Z,67.5
2022-11-10T02:09:32.661Z,67.5
2022-11-10T02:09:52.714Z,67.5
2022-11-10T02:10:12.783Z,180
2022-11-10T02:10:32.837Z,270
2022-11-10T02:10:52.883Z,247.5
2022-11-10T02:11:12.942Z,157.5
2022-11-10T02:11:32.986Z,112.5
2022-11-10T02:11:53.050Z,90
2022-11-10T02:12:13.113Z,90
2022-11-10T02:12:33.197Z,135
2022-11-10T02:12:53.219Z,225
2022-11-10T02:13:13.275Z,270
2022-11-10T02:13:33.538Z,292.5
2022-11-10T02:13:53.382Z,247.5
2022-11-10T02:14:13.447Z,112.5
2022-11-10T02:14:33.501Z,67.5
2022-11-10T02:14:53.552Z,45
2022-11-10T02:15:13.614Z,135
2022-11-10T02:15:33.664Z,202.5
2022-11-10T02:15:53.716Z,180
2022-11-10T02:16:13.774Z,157.5
2022-11-10T02:16:33.834Z,135
2022-11-10T02:16:53.897Z,112.5
2022-11-10T02:17:13.943Z,112.5
2022-11-10T02:17:34.039Z,112.5
2022-11-10T02:17:54.121Z,67.5
2022-11-10T02:18:14.181Z,45
2022-11-10T02:18:34.416Z,67.5
2022-11-10T02:18:54.285Z,90
2022-11-10T02:19:14.397Z,157.5
2022-11-10T02:19:34.438Z,247.5
2022-11-10T02:19:54.500Z,225
2022-11-10T02:20:14.559Z,225
2022-11-10T02:20:34.599Z,202.5
2022-11-10T02:20:54.683Z,202.5
2022-11-10T02:21:14.722Z,180
2022-11-10T02:21:34.770Z,157.5
2022-11-10T02:21:54.825Z,157.5
2022-11-10T02:22:14.879Z,157.5
2022-11-10T02:22:34.959Z,90
2022-11-10T02:22:54.990Z,45
2022-11-10T02:23:15.057Z,45
2022-11-10T02:23:35.190Z,22.5
2022-11-10T02:23:55.167Z,22.5
2022-11-10T02:24:15.229Z,22.5
2022-11-10T02:24:35.280Z,90
2022-11-10T02:24:55.330Z,180
2022-11-10T02:25:15.382Z,90
2022-11-10T02:25:35.431Z,45
2022-11-10T02:25:55.480Z,67.5
2022-11-10T02:26:15.544Z,90
2022-11-10T02:26:35.604Z,112.5
2022-11-10T02:26:55.671Z,112.5
2022-11-10T02:27:15.732Z,90
2022-11-10T02:27:35.781Z,67.5
2022-11-10T02:27:55.839Z,45
2022-11-10T02:28:15.900Z,45
2022-11-10T02:28:36.048Z,45
2022-11-10T02:28:55.997Z,67.5
2022-11-10T02:29:16.054Z,45
2022-11-10T02:29:36.115Z,22.5
2022-11-10T02:29:56.167Z,22.5
2022-11-10T02:30:16.223Z,22.5
2022-11-10T02:30:36.284Z,22.5
2022-11-10T02:30:56.340Z,22.5
2022-11-10T02:31:16.383Z,45
2022-11-10T02:31:36.447Z,45
2022-11-10T02:31:56.503Z,22.5
2022-11-10T02:32:16.548Z,22.5
2022-11-10T02:32:36.615Z,22.5
2022-11-10T02:32:56.675Z,45
2022-11-10T02:33:16.723Z,67.5
2022-11-10T02:33:36.869Z,67.5
2022-11-10T02:33:56.832Z,180
2022-11-10T02:34:16.919Z,202.5
2022-11-10T02:34:36.951Z,202.5
2022-11-10T02:34:57.006Z,180
2022-11-10T02:35:17.067Z,135
2022-11-10T02:35:37.103Z,67.5
2022-11-10T02:35:57.177Z,135
2022-11-10T02:36:17.223Z,247.5
2022-11-10T02:36:37.282Z,270
2022-11-10T02:36:57.334Z,202.5
2022-11-10T02:37:17.396Z,112.5
2022-11-10T02:37:37.458Z,157.5
2022-11-10T02:37:57.514Z,202.5
2022-11-10T02:38:17.641Z,247.5
2022-11-10T02:38:37.729Z,292.5
2022-11-10T02:38:57.684Z,270
2022-11-10T02:39:17.742Z,247.5
2022-11-10T02:39:37.802Z,180
2022-11-10T02:39:57.845Z,135
2022-11-10T02:40:17.914Z,135
2022-11-10T02:40:37.950Z,90
2022-11-10T02:40:58.015Z,67.5
2022-11-10T02:41:18.072Z,45
2022-11-10T02:41:38.128Z,45
2022-11-10T02:41:58.185Z,67.5
2022-11-10T02:42:18.231Z,67.5
2022-11-10T02:42:38.258Z,90
2022-11-10T02:42:58.346Z,45
2022-11-10T02:43:18.434Z,45
2022-11-10T02:43:38.551Z,45
2022-11-10T02:43:58.515Z,45
2022-11-10T02:44:18.579Z,90
2022-11-10T02:44:38.623Z,90
2022-11-10T02:44:58.694Z,112.5
2022-11-10T02:45:18.752Z,202.5
2022-11-10T02:45:38.808Z,247.5
2022-11-10T02:45:58.871Z,180
2022-11-10T02:46:18.914Z,90
2022-11-10T02:46:38.980Z,90
2022-11-10T02:46:59.042Z,157.5
2022-11-10T02:47:19.085Z,90
2022-11-10T02:47:39.152Z,67.5
2022-11-10T02:47:59.205Z,90
2022-11-10T02:48:19.257Z,90
2022-11-10T02:48:39.407Z,90
2022-11-10T02:48:59.384Z,112.5
2022-11-10T02:49:19.432Z,112.5
2022-11-10T02:49:39.488Z,112.5
2022-11-10T02:49:59.546Z,112.5
2022-11-10T02:50:19.603Z,90
2022-11-10T02:50:39.658Z,67.5
2022-11-10T02:50:59.712Z,135
2022-11-10T02:51:19.774Z,180
2022-11-10T02:51:39.842Z,180
2022-11-10T02:51:59.883Z,135
2022-11-10T02:52:19.946Z,112.5
2022-11-10T02:52:39.988Z,90
2022-11-10T02:53:00.048Z,67.5
2022-11-10T02:53:20.425Z,90
2022-11-10T02:53:40.271Z,67.5
2022-11-10T02:54:00.227Z,45
2022-11-10T02:54:20.289Z,22.5
2022-11-10T02:54:40.334Z,45
2022-11-10T02:55:00.393Z,45
2022-11-10T02:55:20.455Z,22.5
2022-11-10T02:55:40.512Z,45
2022-11-10T02:56:00.555Z,45
2022-11-10T02:56:20.621Z,90
2022-11-10T02:56:40.685Z,180
2022-11-10T02:57:00.738Z,202.5
2022-11-10T02:57:20.809Z,225
2022-11-10T02:57:40.847Z,135
2022-11-10T02:58:00.890Z,67.5
2022-11-10T02:58:20.960Z,45
2022-11-10T02:58:41.122Z,45
2022-11-10T02:59:01.058Z,45
2022-11-10T02:59:21.123Z,22.5
2022-11-10T02:59:41.180Z,67.5
2022-11-10T03:00:01.245Z,67.5
2022-11-10T03:00:21.301Z,45
2022-11-10T03:00:41.339Z,22.5
2022-11-10T03:01:01.442Z,22.5
2022-11-10T03:01:21.529Z,22.5
2022-11-10T03:01:41.596Z,45
2022-11-10T03:02:01.571Z,45
2022-11-10T03:02:21.631Z,45
2022-11-10T03:02:41.677Z,202.5
2022-11-10T03:03:01.727Z,225
2022-11-10T03:03:22.256Z,112.5
2022-11-10T03:03:41.928Z,45
2022-11-10T03:04:01.894Z,112.5
2022-11-10T03:04:21.921Z,247.5
2022-11-10T03:04:42.008Z,315
2022-11-10T03:05:02.080Z,180
2022-11-10T03:05:22.143Z,90
2022-11-10T03:05:42.190Z,67.5
2022-11-10T03:06:02.251Z,180
2022-11-10T03:06:22.304Z,202.5
2022-11-10T03:06:42.387Z,135
2022-11-10T03:07:02.488Z,135
2022-11-10T03:07:22.465Z,157.5
2022-11-10T03:07:42.533Z,225
2022-11-10T03:08:02.574Z,247.5
2022-11-10T03:08:22.645Z,180
2022-11-10T03:08:42.789Z,90
2022-11-10T03:09:02.749Z,67.5
2022-11-10T03:09:22.806Z,90
2022-11-10T03:09:42.862Z,202.5
2022-11-10T03:10:02.917Z,292.5
2022-11-10T03:10:22.973Z,202.5
2022-11-10T03:10:43.029Z,90
2022-11-10T03:11:03.082Z,45
2022-11-10T03:11:25.784Z,45
2022-11-10T03:11:43.184Z,22.5
2022-11-10T03:12:03.247Z,45
2022-11-10T03:12:23.304Z,67.5
2022-11-10T03:12:43.363Z,112.5
2022-11-10T03:13:03.424Z,90
2022-11-10T03:13:23.843Z,45
2022-11-10T03:14:00.472Z,45
2022-11-10T03:14:03.587Z,22.5
2022-11-10T03:14:23.629Z,22.5
2022-11-10T03:14:43.697Z,22.5
2022-11-10T03:15:03.758Z,22.5
2022-11-10T03:15:23.802Z,22.5
2022-11-10T03:15:43.857Z,22.5
2022-11-10T03:16:03.910Z,22.5
2022-11-10T03:16:23.969Z,22.5
2022-11-10T03:16:44.039Z,22.5
2022-11-10T03:17:04.084Z,67.5
2022-11-10T03:17:24.137Z,90
2022-11-10T03:17:44.191Z,112.5
2022-11-10T03:18:04.256Z,112.5
2022-11-10T03:18:24.312Z,135
2022-11-10T03:18:44.477Z,157.5
2022-11-10T03:19:04.420Z,157.5
2022-11-10T03:19:24.483Z,135
2022-11-10T03:19:44.533Z,135
2022-11-10T03:20:04.590Z,135
2022-11-10T03:20:24.653Z,135
2022-11-10T03:20:44.727Z,90
2022-11-10T03:21:04.768Z,45
2022-11-10T03:21:24.817Z,22.5
2022-11-10T03:21:44.863Z,22.5
2022-11-10T03:22:04.920Z,22.5
2022-11-10T03:22:24.990Z,22.5
2022-11-10T03:22:45.036Z,22.5
2022-11-10T03:23:05.099Z,22.5
2022-11-10T03:23:25.437Z,22.5
2022-11-10T03:23:45.299Z,45
2022-11-10T03:24:05.273Z,22.5
2022-11-10T03:24:25.321Z,45
2022-11-10T03:24:45.376Z,67.5
2022-11-10T03:25:05.434Z,90
2022-11-10T03:25:25.488Z,202.5
2022-11-10T03:25:45.542Z,135
2022-11-10T03:26:05.598Z,67.5
2022-11-10T03:26:25.654Z,45
2022-11-10T03:26:45.698Z,45
2022-11-10T03:27:05.754Z,67.5
2022-11-10T03:27:25.813Z,90
2022-11-10T03:27:45.869Z,67.5
2022-11-10T03:28:05.910Z,90
2022-11-10T03:28:25.981Z,112.5
2022-11-10T03:28:46.144Z,112.5
2022-11-10T03:29:06.063Z,157.5
2022-11-10T03:29:26.142Z,225
2022-11-10T03:29:46.185Z,225
2022-11-10T03:30:06.255Z,202.5
2022-11-10T03:30:26.314Z,247.5
2022-11-10T03:30:46.385Z,202.5
2022-11-10T03:31:06.442Z,90
2022-11-10T03:31:26.482Z,45
2022-11-10T03:31:46.534Z,22.5
2022-11-10T03:32:06.597Z,22.5
2022-11-10T03:32:26.646Z,22.5
2022-11-10T03:32:46.692Z,45
2022-11-10T03:33:06.752Z,90
2022-11-10T03:33:26.816Z,180
2022-11-10T03:33:46.948Z,292.5
2022-11-10T03:34:06.929Z,337.5
2022-11-10T03:34:30.776Z,0
2022-11-10T03:34:47.040Z,0
2022-11-10T03:35:07.102Z,292.5
2022-11-10T03:35:27.152Z,135
2022-11-10T03:35:47.204Z,45
2022-11-10T03:36:07.268Z,22.5
2022-11-10T03:36:27.396Z,22.5
2022-11-10T03:36:47.379Z,0
2022-11-10T03:37:07.422Z,0
2022-11-10T03:37:27.478Z,112.5
2022-11-10T03:37:47.523Z,270
2022-11-10T03:38:07.594Z,270
2022-11-10T03:38:27.642Z,202.5
2022-11-10T03:38:47.786Z,180
2022-11-10T03:39:07.749Z,180
2022-11-10T03:39:27.807Z,157.5
2022-11-10T03:39:47.877Z,135
2022-11-10T03:40:07.919Z,135
2022-11-10T03:40:27.982Z,135
2022-11-10T03:41:17.451Z,112.5
2022-11-10T03:41:23.593Z,112.5
2022-11-10T03:41:28.132Z,135
2022-11-10T03:41:48.201Z,112.5
2022-11-10T03:42:08.255Z,112.5
2022-11-10T03:42:28.304Z,112.5
2022-11-10T03:42:48.362Z,90
2022-11-10T03:43:08.402Z,90
2022-11-10T03:43:28.465Z,90
2022-11-10T03:43:48.605Z,90
2022-11-10T03:44:08.571Z,135
2022-11-10T03:44:28.623Z,157.5
2022-11-10T03:44:48.676Z,67.5
2022-11-10T03:45:08.732Z,22.5
2022-11-10T03:45:28.788Z,45
2022-11-10T03:45:48.843Z,112.5
2022-11-10T03:46:08.895Z,135
2022-11-10T03:46:29.072Z,135
2022-11-10T03:46:51.546Z,112.5
2022-11-10T03:47:09.061Z,112.5
2022-11-10T03:47:29.117Z,90
2022-11-10T03:47:49.173Z,67.5
2022-11-10T03:48:09.225Z,45
2022-11-10T03:48:29.291Z,22.5
2022-11-10T03:48:53.466Z,22.5
2022-11-10T03:49:09.403Z,22.5
2022-11-10T03:49:29.454Z,22.5
2022-11-10T03:49:49.503Z,22.5
2022-11-10T03:50:09.549Z,45
2022-11-10T03:50:29.838Z,90
2022-11-10T03:50:49.671Z,135
2022-11-10T03:51:09.725Z,157.5
2022-11-10T03:51:29.780Z,157.5
2022-11-10T03:51:49.842Z,157.5
2022-11-10T03:52:09.883Z,157.5
2022-11-10T03:52:29.948Z,157.5
2022-11-10T03:52:49.997Z,112.5
2022-11-10T03:53:10.049Z,67.5
2022-11-10T03:53:30.119Z,45
2022-11-10T03:53:50.251Z,45
2022-11-10T03:54:10.216Z,67.5
2022-11-10T03:54:30.269Z,90
2022-11-10T03:54:50.321Z,112.5
2022-11-10T03:55:10.384Z,112.5
2022-11-10T03:55:30.434Z,112.5
2022-11-10T03:55:50.487Z,112.5
2022-11-10T03:56:10.541Z,157.5
2022-11-10T03:56:30.623Z,202.5
2022-11-10T03:56:50.654Z,225
2022-11-10T03:57:10.713Z,247.5
2022-11-10T03:57:30.765Z,270
2022-11-10T03:57:50.821Z,270
2022-11-10T03:58:10.868Z,270
2022-11-10T03:58:30.925Z,225
2022-11-10T03:58:51.074Z,225
2022-11-10T03:59:11.029Z,202.5
2022-11-10T03:59:31.086Z,180
2022-11-10T03:59:51.139Z,180
2022-11-10T04:00:11.198Z,180
2022-11-10T04:00:31.259Z,180
2022-11-10T04:00:51.304Z,157.5
2022-11-10T04:01:11.351Z,157.5
2022-11-10T04:01:31.450Z,180
2022-11-10T04:01:51.522Z,157.5
2022-11-10T04:02:11.585Z,157.5
2022-11-10T04:02:31.583Z,135
2022-11-10T04:02:51.646Z,135
2022-11-10T04:03:11.701Z,135
2022-11-10T04:03:31.760Z,135
2022-11-10T04:03:51.949Z,135
2022-11-10T04:04:11.860Z,135
2022-11-10T04:04:31.949Z,157.5
2022-11-10T04:04:52.023Z,157.5
2022-11-10T04:05:12.085Z,157.5
2022-11-10T04:05:32.146Z,135
2022-11-10T04:05:52.193Z,135
2022-11-10T04:06:12.239Z,135
2022-11-10T04:06:32.525Z,135
2022-11-10T04:06:52.393Z,135
2022-11-10T04:07:12.492Z,135
2022-11-10T04:07:32.488Z,135
2022-11-10T04:07:52.548Z,135
2022-11-10T04:08:12.594Z,135
2022-11-10T04:08:32.652Z,135
2022-11-10T04:08:52.785Z,135
2022-11-10T04:09:12.762Z,135
2022-11-10T04:09:32.809Z,135
2022-11-10T04:09:52.860Z,135
2022-11-10T04:10:12.921Z,135
2022-11-10T04:10:32.964Z,135
2022-11-10T04:10:53.026Z,157.5
2022-11-10T04:11:13.084Z,180
2022-11-10T04:11:33.138Z,180
2022-11-10T04:11:53.182Z,180
2022-11-10T04:12:13.253Z,180
2022-11-10T04:12:33.323Z,180
2022-11-10T04:12:53.365Z,157.5
2022-11-10T04:13:13.431Z,157.5
2022-11-10T04:13:33.482Z,180
2022-11-10T04:13:53.646Z,157.5
2022-11-10T04:14:13.598Z,157.5
2022-11-10T04:14:33.650Z,157.5
2022-11-10T04:14:53.711Z,135
2022-11-10T04:15:13.751Z,157.5
2022-11-10T04:15:33.813Z,157.5
2022-11-10T04:15:53.881Z,135
2022-11-10T04:16:13.933Z,112.5
2022-11-10T04:16:33.993Z,112.5
2022-11-10T04:16:54.052Z,135
2022-11-10T04:17:14.109Z,157.5
2022-11-10T04:17:34.163Z,157.5
2022-11-10T04:17:54.221Z,112.5
2022-11-10T04:18:14.281Z,112.5
2022-11-10T04:18:34.342Z,112.5
2022-11-10T04:18:54.488Z,135
2022-11-10T04:19:14.445Z,112.5
2022-11-10T04:19:34.489Z,112.5
2022-11-10T04:19:54.546Z,135
2022-11-10T04:20:14.595Z,135
2022-11-10T04:20:34.657Z,112.5
2022-11-10T04:20:54.717Z,112.5
2022-11-10T04:21:14.773Z,112.5
2022-11-10T04:21:34.820Z,112.5
2022-11-10T04:21:54.876Z,112.5
2022-11-10T04:22:14.933Z,90
2022-11-10T04:22:34.981Z,90
2022-11-10T04:22:55.018Z,112.5
2022-11-10T04:23:15.080Z,112.5
2022-11-10T04:23:35.149Z,135
2022-11-10T04:23:55.308Z,135
2022-11-10T04:24:15.260Z,112.5
2022-11-10T04:24:35.302Z,135
2022-11-10T04:24:55.355Z,135
2022-11-10T04:25:15.418Z,112.5
2022-11-10T04:25:35.470Z,112.5
2022-11-10T04:25:55.526Z,90
2022-11-10T04:26:15.572Z,112.5
2022-11-10T04:26:35.629Z,112.5
2022-11-10T04:26:55.686Z,135
2022-11-10T04:27:15.750Z,135
2022-11-10T04:27:35.872Z,135
2022-11-10T04:27:55.858Z,135
2022-11-10T04:28:15.900Z,135
2022-11-10T04:28:35.985Z,157.5
2022-11-10T04:28:56.109Z,247.5
2022-11-10T04:29:16.071Z,292.5
2022-11-10T04:29:36.126Z,315
2022-11-10T04:29:56.178Z,315
2022-11-10T04:30:16.235Z,225